sensor_id;sensor_type;location;lat;lon;timestamp;temperature;humidity
21176;DHT22;10746;50.178;8.186;2022-09-27T00:01:52;8.90;99.90
21176;DHT22;10746;50.178;8.186;2022-09-27T00:04:19;8.90;99.90
21176;DHT22;10746;50.178;8.186;2022-09-27T00:06:46;8.90;99.90
21176;DHT22;10746;50.178;8.186;2022-09-27T00:09:14;8.90;99.90
21176;DHT22;10746;50.178;8.186;2022-09-27T00:11:41;8.90;99.90
21176;DHT22;10746;50.178;8.186;2022-09-27T00:14:10;8.90;99.90
21176;DHT22;10746;50.178;8.186;2022-09-27T00:16:38;9.00;99.90
21176;DHT22;10746;50.178;8.186;2022-09-27T00:19:07;8.90;99.90
21176;DHT22;10746;50.178;8.186;2022-09-27T00:21:34;8.90;99.90
21176;DHT22;10746;50.178;8.186;2022-09-27T00:24:01;8.90;99.90
21176;DHT22;10746;50.178;8.186;2022-09-27T00:26:29;8.90;99.90
21176;DHT22;10746;50.178;8.186;2022-09-27T00:28:56;9.00;99.90
21176;DHT22;10746;50.178;8.186;2022-09-27T00:31:24;9.00;99.90
21176;DHT22;10746;50.178;8.186;2022-09-27T00:33:54;8.90;99.90
21176;DHT22;10746;50.178;8.186;2022-09-27T00:36:22;8.90;99.90
21176;DHT22;10746;50.178;8.186;2022-09-27T00:38:50;8.90;99.90
21176;DHT22;10746;50.178;8.186;2022-09-27T00:41:20;8.90;99.90
21176;DHT22;10746;50.178;8.186;2022-09-27T00:43:50;8.80;99.90
21176;DHT22;10746;50.178;8.186;2022-09-27T00:46:21;8.80;99.90
21176;DHT22;10746;50.178;8.186;2022-09-27T00:48:56;8.90;99.90
21176;DHT22;10746;50.178;8.186;2022-09-27T00:51:25;8.90;99.90
21176;DHT22;10746;50.178;8.186;2022-09-27T00:53:54;8.90;99.90
21176;DHT22;10746;50.178;8.186;2022-09-27T00:56:26;8.80;99.90
21176;DHT22;10746;50.178;8.186;2022-09-27T00:58:59;8.90;99.90
21176;DHT22;10746;50.178;8.186;2022-09-27T01:01:28;8.80;99.90
21176;DHT22;10746;50.178;8.186;2022-09-27T01:03:58;8.80;99.90
21176;DHT22;10746;50.178;8.186;2022-09-27T01:06:26;8.90;99.90
21176;DHT22;10746;50.178;8.186;2022-09-27T01:08:53;8.80;99.90
21176;DHT22;10746;50.178;8.186;2022-09-27T01:11:29;8.80;99.90
21176;DHT22;10746;50.178;8.186;2022-09-27T01:14:10;8.80;99.90
21176;DHT22;10746;50.178;8.186;2022-09-27T01:16:47;8.80;99.90
21176;DHT22;10746;50.178;8.186;2022-09-27T01:19:36;8.80;99.90
21176;DHT22;10746;50.178;8.186;2022-09-27T01:22:12;8.80;99.90
21176;DHT22;10746;50.178;8.186;2022-09-27T01:24:58;8.80;99.90
21176;DHT22;10746;50.178;8.186;2022-09-27T01:30:44;8.80;99.90
21176;DHT22;10746;50.178;8.186;2022-09-27T01:33:20;8.80;99.90
21176;DHT22;10746;50.178;8.186;2022-09-27T01:36:01;8.80;99.90
21176;DHT22;10746;50.178;8.186;2022-09-27T01:38:39;8.70;99.90
21176;DHT22;10746;50.178;8.186;2022-09-27T01:41:13;8.70;99.90
21176;DHT22;10746;50.178;8.186;2022-09-27T01:43:44;8.70;99.90
21176;DHT22;10746;50.178;8.186;2022-09-27T01:46:17;8.70;99.90
21176;DHT22;10746;50.178;8.186;2022-09-27T01:48:47;8.70;99.90
21176;DHT22;10746;50.178;8.186;2022-09-27T01:51:16;8.70;99.90
21176;DHT22;10746;50.178;8.186;2022-09-27T01:53:47;8.60;99.90
21176;DHT22;10746;50.178;8.186;2022-09-27T01:56:21;8.70;99.90
21176;DHT22;10746;50.178;8.186;2022-09-27T01:58:51;8.70;99.90
21176;DHT22;10746;50.178;8.186;2022-09-27T02:01:22;8.60;99.90
21176;DHT22;10746;50.178;8.186;2022-09-27T02:03:51;8.70;99.90
21176;DHT22;10746;50.178;8.186;2022-09-27T02:06:20;8.70;99.90
21176;DHT22;10746;50.178;8.186;2022-09-27T02:08:52;8.70;99.90
21176;DHT22;10746;50.178;8.186;2022-09-27T02:11:21;8.60;99.90
21176;DHT22;10746;50.178;8.186;2022-09-27T02:13:52;8.70;99.90
21176;DHT22;10746;50.178;8.186;2022-09-27T02:16:28;8.60;99.90
21176;DHT22;10746;50.178;8.186;2022-09-27T02:19:03;8.50;99.90
21176;DHT22;10746;50.178;8.186;2022-09-27T02:21:40;8.50;99.90
21176;DHT22;10746;50.178;8.186;2022-09-27T02:24:11;8.50;99.90
21176;DHT22;10746;50.178;8.186;2022-09-27T02:26:42;8.50;99.90
21176;DHT22;10746;50.178;8.186;2022-09-27T02:29:12;8.50;99.90
21176;DHT22;10746;50.178;8.186;2022-09-27T02:31:42;8.40;99.90
21176;DHT22;10746;50.178;8.186;2022-09-27T02:34:14;8.40;99.90
21176;DHT22;10746;50.178;8.186;2022-09-27T02:36:42;8.30;99.90
21176;DHT22;10746;50.178;8.186;2022-09-27T02:39:08;8.20;99.90
21176;DHT22;10746;50.178;8.186;2022-09-27T02:41:35;8.20;99.90
21176;DHT22;10746;50.178;8.186;2022-09-27T02:44:06;8.10;99.90
21176;DHT22;10746;50.178;8.186;2022-09-27T02:46:49;8.10;99.90
21176;DHT22;10746;50.178;8.186;2022-09-27T02:49:30;8.00;99.90
21176;DHT22;10746;50.178;8.186;2022-09-27T02:52:13;8.00;99.90
21176;DHT22;10746;50.178;8.186;2022-09-27T02:54:55;7.90;99.90
21176;DHT22;10746;50.178;8.186;2022-09-27T02:57:32;8.00;99.90
21176;DHT22;10746;50.178;8.186;2022-09-27T03:00:05;7.90;99.90
21176;DHT22;10746;50.178;8.186;2022-09-27T03:02:44;7.90;99.90
21176;DHT22;10746;50.178;8.186;2022-09-27T03:05:16;7.90;99.90
21176;DHT22;10746;50.178;8.186;2022-09-27T03:07:45;8.00;99.90
21176;DHT22;10746;50.178;8.186;2022-09-27T03:10:16;7.70;99.90
21176;DHT22;10746;50.178;8.186;2022-09-27T03:12:43;7.80;99.90
21176;DHT22;10746;50.178;8.186;2022-09-27T03:15:12;7.80;99.90
21176;DHT22;10746;50.178;8.186;2022-09-27T03:17:40;7.80;99.90
21176;DHT22;10746;50.178;8.186;2022-09-27T03:20:08;7.80;99.90
21176;DHT22;10746;50.178;8.186;2022-09-27T03:22:35;7.80;99.90
21176;DHT22;10746;50.178;8.186;2022-09-27T03:25:03;7.80;99.90
21176;DHT22;10746;50.178;8.186;2022-09-27T03:27:30;7.70;99.90
21176;DHT22;10746;50.178;8.186;2022-09-27T03:29:56;7.70;99.90
21176;DHT22;10746;50.178;8.186;2022-09-27T03:32:24;7.70;99.90
21176;DHT22;10746;50.178;8.186;2022-09-27T03:34:52;7.70;99.90
21176;DHT22;10746;50.178;8.186;2022-09-27T03:37:19;7.70;99.90
21176;DHT22;10746;50.178;8.186;2022-09-27T03:39:46;7.70;99.90
21176;DHT22;10746;50.178;8.186;2022-09-27T03:42:13;7.70;99.90
21176;DHT22;10746;50.178;8.186;2022-09-27T03:44:40;7.70;99.90
21176;DHT22;10746;50.178;8.186;2022-09-27T03:47:07;7.70;99.90
21176;DHT22;10746;50.178;8.186;2022-09-27T03:49:34;7.70;99.90
21176;DHT22;10746;50.178;8.186;2022-09-27T03:52:02;7.70;99.90
21176;DHT22;10746;50.178;8.186;2022-09-27T03:54:29;7.70;99.90
21176;DHT22;10746;50.178;8.186;2022-09-27T03:56:55;7.70;99.90
21176;DHT22;10746;50.178;8.186;2022-09-27T03:59:22;7.70;99.90
21176;DHT22;10746;50.178;8.186;2022-09-27T04:01:49;7.60;99.90
21176;DHT22;10746;50.178;8.186;2022-09-27T04:04:16;7.70;99.90
21176;DHT22;10746;50.178;8.186;2022-09-27T04:06:43;7.70;99.90
21176;DHT22;10746;50.178;8.186;2022-09-27T04:09:11;7.60;99.90
21176;DHT22;10746;50.178;8.186;2022-09-27T04:11:38;7.60;99.90
21176;DHT22;10746;50.178;8.186;2022-09-27T04:14:04;7.70;99.90
21176;DHT22;10746;50.178;8.186;2022-09-27T04:16:33;7.60;99.90
21176;DHT22;10746;50.178;8.186;2022-09-27T04:19:00;7.50;99.90
21176;DHT22;10746;50.178;8.186;2022-09-27T04:21:27;7.60;99.90
21176;DHT22;10746;50.178;8.186;2022-09-27T04:23:53;7.60;99.90
21176;DHT22;10746;50.178;8.186;2022-09-27T04:26:22;7.60;99.90
21176;DHT22;10746;50.178;8.186;2022-09-27T04:28:50;7.50;99.90
21176;DHT22;10746;50.178;8.186;2022-09-27T04:31:17;7.50;99.90
21176;DHT22;10746;50.178;8.186;2022-09-27T04:33:43;7.50;99.90
21176;DHT22;10746;50.178;8.186;2022-09-27T04:36:16;7.50;99.90
21176;DHT22;10746;50.178;8.186;2022-09-27T04:38:52;7.50;99.90
21176;DHT22;10746;50.178;8.186;2022-09-27T04:41:20;7.50;99.90
21176;DHT22;10746;50.178;8.186;2022-09-27T04:43:49;7.50;99.90
21176;DHT22;10746;50.178;8.186;2022-09-27T04:46:16;7.50;99.90
21176;DHT22;10746;50.178;8.186;2022-09-27T04:48:42;7.60;99.90
21176;DHT22;10746;50.178;8.186;2022-09-27T04:51:09;7.50;99.90
21176;DHT22;10746;50.178;8.186;2022-09-27T04:53:37;7.50;99.90
21176;DHT22;10746;50.178;8.186;2022-09-27T04:56:04;7.50;99.90
21176;DHT22;10746;50.178;8.186;2022-09-27T04:58:32;7.50;99.90
21176;DHT22;10746;50.178;8.186;2022-09-27T05:01:00;7.50;99.90
21176;DHT22;10746;50.178;8.186;2022-09-27T05:03:28;7.50;99.90
21176;DHT22;10746;50.178;8.186;2022-09-27T05:05:55;7.50;99.90
21176;DHT22;10746;50.178;8.186;2022-09-27T05:08:22;7.50;99.90
21176;DHT22;10746;50.178;8.186;2022-09-27T05:10:50;7.50;99.90
21176;DHT22;10746;50.178;8.186;2022-09-27T05:13:16;7.50;99.90
21176;DHT22;10746;50.178;8.186;2022-09-27T05:15:43;7.50;99.90
21176;DHT22;10746;50.178;8.186;2022-09-27T05:18:12;7.50;99.90
21176;DHT22;10746;50.178;8.186;2022-09-27T05:20:40;7.50;99.90
21176;DHT22;10746;50.178;8.186;2022-09-27T05:23:08;7.50;99.90
21176;DHT22;10746;50.178;8.186;2022-09-27T05:25:35;7.60;99.90
21176;DHT22;10746;50.178;8.186;2022-09-27T05:28:02;7.50;99.90
21176;DHT22;10746;50.178;8.186;2022-09-27T05:30:30;7.70;99.90
21176;DHT22;10746;50.178;8.186;2022-09-27T05:32:56;7.50;99.90
21176;DHT22;10746;50.178;8.186;2022-09-27T05:35:25;7.50;99.90
21176;DHT22;10746;50.178;8.186;2022-09-27T05:37:52;7.50;99.90
21176;DHT22;10746;50.178;8.186;2022-09-27T05:40:20;7.40;99.90
21176;DHT22;10746;50.178;8.186;2022-09-27T05:42:49;7.50;99.90
21176;DHT22;10746;50.178;8.186;2022-09-27T05:45:16;7.40;99.90
21176;DHT22;10746;50.178;8.186;2022-09-27T05:47:43;7.50;99.90
21176;DHT22;10746;50.178;8.186;2022-09-27T05:50:09;7.50;99.90
21176;DHT22;10746;50.178;8.186;2022-09-27T05:52:38;7.60;99.90
21176;DHT22;10746;50.178;8.186;2022-09-27T05:55:05;7.60;99.90
21176;DHT22;10746;50.178;8.186;2022-09-27T05:57:32;7.50;99.90
21176;DHT22;10746;50.178;8.186;2022-09-27T05:59:59;7.50;99.90
21176;DHT22;10746;50.178;8.186;2022-09-27T06:02:26;7.50;99.90
21176;DHT22;10746;50.178;8.186;2022-09-27T06:04:53;7.50;99.90
21176;DHT22;10746;50.178;8.186;2022-09-27T06:07:21;7.50;99.90
21176;DHT22;10746;50.178;8.186;2022-09-27T06:09:49;7.50;99.90
21176;DHT22;10746;50.178;8.186;2022-09-27T06:12:16;7.60;99.90
21176;DHT22;10746;50.178;8.186;2022-09-27T06:14:45;7.50;99.90
21176;DHT22;10746;50.178;8.186;2022-09-27T06:17:12;7.50;99.90
21176;DHT22;10746;50.178;8.186;2022-09-27T06:19:39;7.60;99.90
21176;DHT22;10746;50.178;8.186;2022-09-27T06:22:06;7.60;99.90
21176;DHT22;10746;50.178;8.186;2022-09-27T06:24:33;7.60;99.90
21176;DHT22;10746;50.178;8.186;2022-09-27T06:27:01;7.60;99.90
21176;DHT22;10746;50.178;8.186;2022-09-27T06:29:29;7.60;99.90
21176;DHT22;10746;50.178;8.186;2022-09-27T06:31:59;7.50;99.90
21176;DHT22;10746;50.178;8.186;2022-09-27T06:34:26;7.60;99.90
21176;DHT22;10746;50.178;8.186;2022-09-27T06:36:53;7.60;99.90
21176;DHT22;10746;50.178;8.186;2022-09-27T06:39:21;7.60;99.90
21176;DHT22;10746;50.178;8.186;2022-09-27T06:41:52;7.60;99.90
21176;DHT22;10746;50.178;8.186;2022-09-27T06:44:24;7.60;99.90
21176;DHT22;10746;50.178;8.186;2022-09-27T06:46:51;7.60;99.90
21176;DHT22;10746;50.178;8.186;2022-09-27T06:49:20;7.50;99.90
21176;DHT22;10746;50.178;8.186;2022-09-27T06:51:47;7.50;99.90
21176;DHT22;10746;50.178;8.186;2022-09-27T06:54:14;7.60;99.90
21176;DHT22;10746;50.178;8.186;2022-09-27T06:56:41;7.60;99.90
21176;DHT22;10746;50.178;8.186;2022-09-27T06:59:08;7.60;99.90
21176;DHT22;10746;50.178;8.186;2022-09-27T07:01:54;7.60;99.90
21176;DHT22;10746;50.178;8.186;2022-09-27T07:04:21;7.70;99.90
21176;DHT22;10746;50.178;8.186;2022-09-27T07:06:49;7.60;99.90
21176;DHT22;10746;50.178;8.186;2022-09-27T07:09:18;7.60;99.90
21176;DHT22;10746;50.178;8.186;2022-09-27T07:11:44;7.70;99.90
21176;DHT22;10746;50.178;8.186;2022-09-27T07:14:11;7.70;99.90
21176;DHT22;10746;50.178;8.186;2022-09-27T07:16:38;7.80;99.90
21176;DHT22;10746;50.178;8.186;2022-09-27T07:19:06;7.80;99.90
21176;DHT22;10746;50.178;8.186;2022-09-27T07:21:36;7.90;99.90
21176;DHT22;10746;50.178;8.186;2022-09-27T07:24:02;7.90;99.90
21176;DHT22;10746;50.178;8.186;2022-09-27T07:26:29;7.90;99.90
21176;DHT22;10746;50.178;8.186;2022-09-27T07:28:56;8.00;99.90
21176;DHT22;10746;50.178;8.186;2022-09-27T07:31:23;8.00;99.90
21176;DHT22;10746;50.178;8.186;2022-09-27T07:33:50;8.10;99.90
21176;DHT22;10746;50.178;8.186;2022-09-27T07:36:19;8.10;99.90
21176;DHT22;10746;50.178;8.186;2022-09-27T07:38:46;8.00;99.90
21176;DHT22;10746;50.178;8.186;2022-09-27T07:41:13;8.00;99.90
21176;DHT22;10746;50.178;8.186;2022-09-27T07:43:40;8.00;99.90
21176;DHT22;10746;50.178;8.186;2022-09-27T07:46:08;8.00;99.90
21176;DHT22;10746;50.178;8.186;2022-09-27T07:48:35;8.00;99.90
21176;DHT22;10746;50.178;8.186;2022-09-27T07:51:02;8.10;99.90
21176;DHT22;10746;50.178;8.186;2022-09-27T07:53:33;8.00;99.90
21176;DHT22;10746;50.178;8.186;2022-09-27T07:56:00;8.10;99.90
21176;DHT22;10746;50.178;8.186;2022-09-27T07:58:27;8.10;99.90
21176;DHT22;10746;50.178;8.186;2022-09-27T08:00:54;8.00;99.90
21176;DHT22;10746;50.178;8.186;2022-09-27T08:03:21;8.00;99.90
21176;DHT22;10746;50.178;8.186;2022-09-27T08:05:48;8.00;99.90
21176;DHT22;10746;50.178;8.186;2022-09-27T08:08:15;8.10;99.90
21176;DHT22;10746;50.178;8.186;2022-09-27T08:10:43;8.20;99.90
21176;DHT22;10746;50.178;8.186;2022-09-27T08:13:11;8.60;99.90
21176;DHT22;10746;50.178;8.186;2022-09-27T08:15:38;8.80;99.90
21176;DHT22;10746;50.178;8.186;2022-09-27T08:18:05;9.10;99.90
21176;DHT22;10746;50.178;8.186;2022-09-27T08:20:33;9.30;99.90
21176;DHT22;10746;50.178;8.186;2022-09-27T08:23:00;9.40;99.90
21176;DHT22;10746;50.178;8.186;2022-09-27T08:25:28;9.80;99.90
21176;DHT22;10746;50.178;8.186;2022-09-27T08:27:58;10.10;99.90
21176;DHT22;10746;50.178;8.186;2022-09-27T08:30:26;10.00;99.90
21176;DHT22;10746;50.178;8.186;2022-09-27T08:32:56;10.10;99.90
21176;DHT22;10746;50.178;8.186;2022-09-27T08:35:23;9.90;99.90
21176;DHT22;10746;50.178;8.186;2022-09-27T08:37:53;10.30;99.90
21176;DHT22;10746;50.178;8.186;2022-09-27T08:40:22;10.70;99.90
21176;DHT22;10746;50.178;8.186;2022-09-27T08:42:59;10.70;99.90
21176;DHT22;10746;50.178;8.186;2022-09-27T08:45:30;10.20;99.90
21176;DHT22;10746;50.178;8.186;2022-09-27T08:48:00;10.20;99.90
21176;DHT22;10746;50.178;8.186;2022-09-27T08:50:29;10.20;99.90
21176;DHT22;10746;50.178;8.186;2022-09-27T08:53:03;10.50;99.90
21176;DHT22;10746;50.178;8.186;2022-09-27T08:55:35;10.50;99.90
21176;DHT22;10746;50.178;8.186;2022-09-27T08:58:12;10.50;99.90
21176;DHT22;10746;50.178;8.186;2022-09-27T09:00:40;10.40;99.90
21176;DHT22;10746;50.178;8.186;2022-09-27T09:03:14;10.20;99.90
21176;DHT22;10746;50.178;8.186;2022-09-27T09:05:50;9.90;99.90
21176;DHT22;10746;50.178;8.186;2022-09-27T09:08:27;9.70;99.90
21176;DHT22;10746;50.178;8.186;2022-09-27T09:11:03;9.60;99.90
21176;DHT22;10746;50.178;8.186;2022-09-27T09:14:05;9.50;99.90
21176;DHT22;10746;50.178;8.186;2022-09-27T09:16:40;9.50;99.90
21176;DHT22;10746;50.178;8.186;2022-09-27T09:19:22;9.40;99.90
21176;DHT22;10746;50.178;8.186;2022-09-27T09:21:58;9.40;99.90
21176;DHT22;10746;50.178;8.186;2022-09-27T09:24:39;9.50;99.90
21176;DHT22;10746;50.178;8.186;2022-09-27T09:27:15;9.50;99.90
21176;DHT22;10746;50.178;8.186;2022-09-27T09:30:16;9.40;99.90
21176;DHT22;10746;50.178;8.186;2022-09-27T09:32:54;9.50;99.90
21176;DHT22;10746;50.178;8.186;2022-09-27T09:35:30;9.60;99.90
21176;DHT22;10746;50.178;8.186;2022-09-27T09:38:00;9.70;99.90
21176;DHT22;10746;50.178;8.186;2022-09-27T09:40:31;9.70;99.90
21176;DHT22;10746;50.178;8.186;2022-09-27T09:43:02;9.60;99.90
21176;DHT22;10746;50.178;8.186;2022-09-27T09:45:34;9.60;99.90
21176;DHT22;10746;50.178;8.186;2022-09-27T09:48:04;9.50;99.90
21176;DHT22;10746;50.178;8.186;2022-09-27T09:50:38;9.60;99.90
21176;DHT22;10746;50.178;8.186;2022-09-27T09:53:12;9.70;99.90
21176;DHT22;10746;50.178;8.186;2022-09-27T09:55:44;9.90;99.90
21176;DHT22;10746;50.178;8.186;2022-09-27T09:58:20;10.10;99.90
21176;DHT22;10746;50.178;8.186;2022-09-27T10:00:52;10.10;99.90
21176;DHT22;10746;50.178;8.186;2022-09-27T10:03:20;10.00;99.90
21176;DHT22;10746;50.178;8.186;2022-09-27T10:05:46;9.90;99.90
21176;DHT22;10746;50.178;8.186;2022-09-27T10:08:17;10.00;99.90
21176;DHT22;10746;50.178;8.186;2022-09-27T10:10:44;10.00;99.90
21176;DHT22;10746;50.178;8.186;2022-09-27T10:13:14;10.20;99.90
21176;DHT22;10746;50.178;8.186;2022-09-27T10:15:43;10.10;99.90
21176;DHT22;10746;50.178;8.186;2022-09-27T10:18:18;10.10;99.90
21176;DHT22;10746;50.178;8.186;2022-09-27T10:20:49;10.10;99.90
21176;DHT22;10746;50.178;8.186;2022-09-27T10:23:20;10.10;99.90
21176;DHT22;10746;50.178;8.186;2022-09-27T10:25:49;10.00;99.90
21176;DHT22;10746;50.178;8.186;2022-09-27T10:28:30;9.90;99.90
21176;DHT22;10746;50.178;8.186;2022-09-27T10:31:00;9.90;99.90
21176;DHT22;10746;50.178;8.186;2022-09-27T10:33:30;9.70;99.90
21176;DHT22;10746;50.178;8.186;2022-09-27T10:35:58;9.70;99.90
21176;DHT22;10746;50.178;8.186;2022-09-27T10:38:28;9.90;99.90
21176;DHT22;10746;50.178;8.186;2022-09-27T10:40:56;10.10;99.90
21176;DHT22;10746;50.178;8.186;2022-09-27T10:43:27;10.50;99.90
21176;DHT22;10746;50.178;8.186;2022-09-27T10:46:12;10.70;99.90
21176;DHT22;10746;50.178;8.186;2022-09-27T10:48:43;11.00;99.90
21176;DHT22;10746;50.178;8.186;2022-09-27T10:51:22;11.00;99.90
21176;DHT22;10746;50.178;8.186;2022-09-27T10:53:50;11.00;99.90
21176;DHT22;10746;50.178;8.186;2022-09-27T10:56:23;10.80;99.90
21176;DHT22;10746;50.178;8.186;2022-09-27T10:58:52;10.80;99.90
21176;DHT22;10746;50.178;8.186;2022-09-27T11:01:21;11.00;99.90
21176;DHT22;10746;50.178;8.186;2022-09-27T11:03:52;11.30;99.90
21176;DHT22;10746;50.178;8.186;2022-09-27T11:06:29;11.70;99.90
21176;DHT22;10746;50.178;8.186;2022-09-27T11:09:09;12.10;99.90
21176;DHT22;10746;50.178;8.186;2022-09-27T11:11:36;11.70;99.90
21176;DHT22;10746;50.178;8.186;2022-09-27T11:14:05;11.50;99.90
21176;DHT22;10746;50.178;8.186;2022-09-27T11:16:58;11.50;99.90
21176;DHT22;10746;50.178;8.186;2022-09-27T11:19:42;11.20;99.90
21176;DHT22;10746;50.178;8.186;2022-09-27T11:22:31;11.10;99.90
21176;DHT22;10746;50.178;8.186;2022-09-27T11:25:09;11.10;99.90
21176;DHT22;10746;50.178;8.186;2022-09-27T11:27:47;11.10;99.90
21176;DHT22;10746;50.178;8.186;2022-09-27T11:30:18;11.40;99.90
21176;DHT22;10746;50.178;8.186;2022-09-27T11:32:59;11.70;99.90
21176;DHT22;10746;50.178;8.186;2022-09-27T11:35:47;11.80;99.90
21176;DHT22;10746;50.178;8.186;2022-09-27T11:38:24;11.90;99.90
21176;DHT22;10746;50.178;8.186;2022-09-27T11:41:15;11.90;99.90
21176;DHT22;10746;50.178;8.186;2022-09-27T11:44:08;11.80;99.90
21176;DHT22;10746;50.178;8.186;2022-09-27T11:46:45;12.60;99.90
21176;DHT22;10746;50.178;8.186;2022-09-27T11:49:35;13.10;99.90
21176;DHT22;10746;50.178;8.186;2022-09-27T11:52:21;13.40;99.90
21176;DHT22;10746;50.178;8.186;2022-09-27T11:57:59;12.20;99.90
21176;DHT22;10746;50.178;8.186;2022-09-27T12:00:40;11.80;99.90
21176;DHT22;10746;50.178;8.186;2022-09-27T12:03:25;11.80;99.90
21176;DHT22;10746;50.178;8.186;2022-09-27T12:06:04;11.80;99.90
21176;DHT22;10746;50.178;8.186;2022-09-27T12:08:44;11.90;99.90
21176;DHT22;10746;50.178;8.186;2022-09-27T12:11:18;11.70;99.90
21176;DHT22;10746;50.178;8.186;2022-09-27T12:13:48;11.60;99.90
21176;DHT22;10746;50.178;8.186;2022-09-27T12:16:19;11.40;99.90
21176;DHT22;10746;50.178;8.186;2022-09-27T12:18:47;11.50;99.90
21176;DHT22;10746;50.178;8.186;2022-09-27T12:21:16;11.60;99.90
21176;DHT22;10746;50.178;8.186;2022-09-27T12:23:46;11.50;99.90
21176;DHT22;10746;50.178;8.186;2022-09-27T12:26:17;11.60;99.90
21176;DHT22;10746;50.178;8.186;2022-09-27T12:28:48;11.50;99.90
21176;DHT22;10746;50.178;8.186;2022-09-27T12:31:20;11.40;99.90
21176;DHT22;10746;50.178;8.186;2022-09-27T12:33:56;11.20;99.90
21176;DHT22;10746;50.178;8.186;2022-09-27T12:36:30;11.10;99.90
21176;DHT22;10746;50.178;8.186;2022-09-27T12:39:04;10.90;99.90
21176;DHT22;10746;50.178;8.186;2022-09-27T12:41:37;10.90;99.90
21176;DHT22;10746;50.178;8.186;2022-09-27T12:44:05;10.70;99.90
21176;DHT22;10746;50.178;8.186;2022-09-27T12:46:38;10.70;99.90
21176;DHT22;10746;50.178;8.186;2022-09-27T12:49:13;10.70;99.90
21176;DHT22;10746;50.178;8.186;2022-09-27T12:51:45;11.10;99.90
21176;DHT22;10746;50.178;8.186;2022-09-27T12:54:27;11.20;99.90
21176;DHT22;10746;50.178;8.186;2022-09-27T12:57:02;11.20;99.90
21176;DHT22;10746;50.178;8.186;2022-09-27T12:59:45;11.20;99.90
21176;DHT22;10746;50.178;8.186;2022-09-27T13:02:38;11.10;99.90
21176;DHT22;10746;50.178;8.186;2022-09-27T13:08:25;10.80;99.90
21176;DHT22;10746;50.178;8.186;2022-09-27T13:11:05;10.80;99.90
21176;DHT22;10746;50.178;8.186;2022-09-27T13:13:36;10.80;99.90
21176;DHT22;10746;50.178;8.186;2022-09-27T13:16:04;10.80;99.90
21176;DHT22;10746;50.178;8.186;2022-09-27T13:18:50;10.80;99.90
21176;DHT22;10746;50.178;8.186;2022-09-27T13:21:53;10.80;99.90
21176;DHT22;10746;50.178;8.186;2022-09-27T13:24:46;10.80;99.90
21176;DHT22;10746;50.178;8.186;2022-09-27T13:27:37;10.80;99.90
21176;DHT22;10746;50.178;8.186;2022-09-27T13:33:32;10.80;99.90
21176;DHT22;10746;50.178;8.186;2022-09-27T13:36:06;10.70;99.90
21176;DHT22;10746;50.178;8.186;2022-09-27T13:38:33;10.70;99.90
21176;DHT22;10746;50.178;8.186;2022-09-27T13:41:13;10.60;99.90
21176;DHT22;10746;50.178;8.186;2022-09-27T13:43:52;10.60;99.90
21176;DHT22;10746;50.178;8.186;2022-09-27T13:46:28;10.50;99.90
21176;DHT22;10746;50.178;8.186;2022-09-27T13:48:58;10.50;99.90
21176;DHT22;10746;50.178;8.186;2022-09-27T13:51:34;10.60;99.90
21176;DHT22;10746;50.178;8.186;2022-09-27T13:56:54;10.80;99.90
21176;DHT22;10746;50.178;8.186;2022-09-27T13:59:30;10.90;99.90
21176;DHT22;10746;50.178;8.186;2022-09-27T14:02:08;11.00;99.90
21176;DHT22;10746;50.178;8.186;2022-09-27T14:04:41;11.20;99.90
21176;DHT22;10746;50.178;8.186;2022-09-27T14:07:13;11.20;99.90
21176;DHT22;10746;50.178;8.186;2022-09-27T14:09:44;11.20;99.90
21176;DHT22;10746;50.178;8.186;2022-09-27T14:12:17;11.20;99.90
21176;DHT22;10746;50.178;8.186;2022-09-27T14:15:00;11.00;99.90
21176;DHT22;10746;50.178;8.186;2022-09-27T14:17:28;10.90;99.90
21176;DHT22;10746;50.178;8.186;2022-09-27T14:19:57;10.80;99.90
21176;DHT22;10746;50.178;8.186;2022-09-27T14:22:24;10.80;99.90
21176;DHT22;10746;50.178;8.186;2022-09-27T14:24:52;10.80;99.90
21176;DHT22;10746;50.178;8.186;2022-09-27T14:27:21;10.80;99.90
21176;DHT22;10746;50.178;8.186;2022-09-27T14:29:50;10.90;99.90
21176;DHT22;10746;50.178;8.186;2022-09-27T14:32:20;10.90;99.90
21176;DHT22;10746;50.178;8.186;2022-09-27T14:35:02;11.00;99.90
21176;DHT22;10746;50.178;8.186;2022-09-27T14:37:29;10.90;99.90
21176;DHT22;10746;50.178;8.186;2022-09-27T14:39:57;10.80;99.90
21176;DHT22;10746;50.178;8.186;2022-09-27T14:42:26;10.70;99.90
21176;DHT22;10746;50.178;8.186;2022-09-27T14:45:00;10.70;99.90
21176;DHT22;10746;50.178;8.186;2022-09-27T14:47:31;10.60;99.90
21176;DHT22;10746;50.178;8.186;2022-09-27T14:49:59;10.60;99.90
21176;DHT22;10746;50.178;8.186;2022-09-27T14:52:30;10.50;99.90
21176;DHT22;10746;50.178;8.186;2022-09-27T14:55:01;10.60;99.90
21176;DHT22;10746;50.178;8.186;2022-09-27T14:57:30;10.60;99.90
21176;DHT22;10746;50.178;8.186;2022-09-27T15:00:08;10.80;99.90
21176;DHT22;10746;50.178;8.186;2022-09-27T15:02:40;10.80;99.90
21176;DHT22;10746;50.178;8.186;2022-09-27T15:05:13;10.90;99.90
21176;DHT22;10746;50.178;8.186;2022-09-27T15:07:41;11.10;99.90
21176;DHT22;10746;50.178;8.186;2022-09-27T15:10:13;11.20;99.90
21176;DHT22;10746;50.178;8.186;2022-09-27T15:12:43;11.20;99.90
21176;DHT22;10746;50.178;8.186;2022-09-27T15:15:13;10.90;99.90
21176;DHT22;10746;50.178;8.186;2022-09-27T15:17:50;10.80;99.90
21176;DHT22;10746;50.178;8.186;2022-09-27T15:20:21;10.70;99.90
21176;DHT22;10746;50.178;8.186;2022-09-27T15:22:49;10.60;99.90
21176;DHT22;10746;50.178;8.186;2022-09-27T15:25:23;10.50;99.90
21176;DHT22;10746;50.178;8.186;2022-09-27T15:27:59;10.20;99.90
21176;DHT22;10746;50.178;8.186;2022-09-27T15:30:28;9.80;99.90
21176;DHT22;10746;50.178;8.186;2022-09-27T15:33:01;9.30;99.90
21176;DHT22;10746;50.178;8.186;2022-09-27T15:35:29;9.10;99.90
21176;DHT22;10746;50.178;8.186;2022-09-27T15:38:24;9.00;99.90
21176;DHT22;10746;50.178;8.186;2022-09-27T15:41:07;8.90;99.90
21176;DHT22;10746;50.178;8.186;2022-09-27T15:43:37;8.90;99.90
21176;DHT22;10746;50.178;8.186;2022-09-27T15:46:34;8.90;99.90
21176;DHT22;10746;50.178;8.186;2022-09-27T15:49:28;8.90;99.90
21176;DHT22;10746;50.178;8.186;2022-09-27T15:51:58;8.80;99.90
21176;DHT22;10746;50.178;8.186;2022-09-27T15:54:27;8.70;99.90
21176;DHT22;10746;50.178;8.186;2022-09-27T15:56:59;8.60;99.90
21176;DHT22;10746;50.178;8.186;2022-09-27T15:59:35;8.50;99.90
21176;DHT22;10746;50.178;8.186;2022-09-27T16:02:11;8.30;99.90
21176;DHT22;10746;50.178;8.186;2022-09-27T16:04:43;8.20;99.90
21176;DHT22;10746;50.178;8.186;2022-09-27T16:07:14;8.10;99.90
21176;DHT22;10746;50.178;8.186;2022-09-27T16:09:41;8.10;99.90
21176;DHT22;10746;50.178;8.186;2022-09-27T16:12:15;8.10;99.90
21176;DHT22;10746;50.178;8.186;2022-09-27T16:14:50;8.20;99.90
21176;DHT22;10746;50.178;8.186;2022-09-27T16:17:18;8.20;99.90
21176;DHT22;10746;50.178;8.186;2022-09-27T16:19:48;8.20;99.90
21176;DHT22;10746;50.178;8.186;2022-09-27T16:22:17;8.20;99.90
21176;DHT22;10746;50.178;8.186;2022-09-27T16:24:46;8.20;99.90